createdAt,value
2023-01-29T00:02:19.290Z,102757.13
2023-01-29T00:08:07.448Z,102764.81
2023-01-29T00:14:15.777Z,102747.44
2023-01-29T00:28:01.773Z,102756.72
2023-01-29T00:33:49.476Z,102763.72
2023-01-29T00:40:48.517Z,102760.38
2023-01-29T00:47:40.002Z,102752.44
2023-01-29T00:54:02.762Z,102766.94
2023-01-29T00:59:49.599Z,102756.63
2023-01-29T01:05:37.159Z,102759.25
2023-01-29T01:11:27.734Z,102748.41
2023-01-29T01:17:15.686Z,102741.13
2023-01-29T01:23:03.553Z,102730.53
2023-01-29T01:28:50.234Z,102719.41
2023-01-29T01:34:37.154Z,102733.97
2023-01-29T01:40:25.593Z,102731.94
2023-01-29T01:46:34.046Z,102719.25
2023-01-29T01:52:23.526Z,102730.53
2023-01-29T01:58:17.715Z,102715.75
2023-01-29T02:10:54.819Z,102733.00
2023-01-29T02:16:45.025Z,102744.56
2023-01-29T02:24:01.299Z,102738.44
2023-01-29T02:30:20.866Z,102725.06
2023-01-29T02:36:40.335Z,102728.47
2023-01-29T02:43:16.487Z,102726.50
2023-01-29T02:49:33.261Z,102717.81
2023-01-29T02:55:33.607Z,102725.28
2023-01-29T03:01:32.339Z,102733.13
2023-01-29T03:07:55.202Z,102723.56
2023-01-29T03:14:04.538Z,102722.03
2023-01-29T03:19:56.087Z,102706.44
2023-01-29T03:26:14.612Z,102702.38
2023-01-29T03:32:07.906Z,102693.09
2023-01-29T03:37:56.960Z,102680.22
2023-01-29T03:45:56.223Z,102673.72
2023-01-29T03:51:01.462Z,102669.97
2023-01-29T03:57:51.282Z,102667.22
2023-01-29T04:04:31.239Z,102672.88
2023-01-29T04:10:23.152Z,102667.94
2023-01-29T04:23:38.684Z,102666.19
2023-01-29T04:29:49.092Z,102663.50
2023-01-29T04:58:37.105Z,102650.78
2023-01-29T05:04:26.278Z,102642.41
2023-01-29T05:10:21.967Z,102634.13
2023-01-29T05:16:13.542Z,102612.06
2023-01-29T05:22:00.776Z,102600.78
2023-01-29T05:28:29.711Z,102598.72
2023-01-29T05:34:26.825Z,102593.66
2023-01-29T05:40:13.905Z,102586.22
2023-01-29T05:46:01.910Z,102587.84
2023-01-29T05:51:51.125Z,102587.81
2023-01-29T05:57:39.555Z,102578.94
2023-01-29T06:03:26.381Z,102567.53
2023-01-29T06:09:13.531Z,102576.84
2023-01-29T06:15:00.663Z,102572.38
2023-01-29T06:20:47.515Z,102571.63
2023-01-29T06:26:55.219Z,102570.22
2023-01-29T06:32:42.376Z,102558.25
2023-01-29T06:38:41.814Z,102553.44
2023-01-29T06:44:56.211Z,102558.03
2023-01-29T06:50:43.076Z,102561.88
2023-01-29T06:56:29.927Z,102564.94
2023-01-29T07:02:16.923Z,102564.75
2023-01-29T07:08:04.420Z,102553.44
2023-01-29T07:13:54.145Z,102536.81
2023-01-29T07:19:41.154Z,102535.00
2023-01-29T07:26:02.097Z,102525.84
2023-01-29T07:32:09.110Z,102525.84
2023-01-29T07:37:55.967Z,102533.75
2023-01-29T07:43:42.700Z,102527.09
2023-01-29T07:49:31.437Z,102525.06
2023-01-29T07:55:19.603Z,102522.81
2023-01-29T08:01:09.026Z,102521.22
2023-01-29T08:06:56.045Z,102519.00
2023-01-29T08:12:56.998Z,102512.47
2023-01-29T08:18:50.374Z,102508.22
2023-01-29T08:24:53.225Z,102520.22
2023-01-29T08:31:17.639Z,102531.94
2023-01-29T08:37:08.088Z,102526.06
2023-01-29T08:43:27.652Z,102524.19
2023-01-29T08:49:16.395Z,102508.38
2023-01-29T08:55:03.841Z,102512.66
2023-01-29T09:00:51.107Z,102520.09
2023-01-29T09:06:40.077Z,102508.81
2023-01-29T09:12:29.687Z,102511.66
2023-01-29T09:18:16.848Z,102511.47
2023-01-29T09:24:12.204Z,102507.59
2023-01-29T09:30:25.582Z,102515.31
2023-01-29T09:37:00.134Z,102502.34
2023-01-29T09:49:37.941Z,102498.84
2023-01-29T09:55:38.525Z,102503.91
2023-01-29T10:01:42.517Z,102514.34
2023-01-29T10:07:41.571Z,102502.56
2023-01-29T10:14:32.177Z,102501.28
2023-01-29T10:21:33.543Z,102501.63
2023-01-29T10:28:04.073Z,102507.03
2023-01-29T10:40:42.987Z,102501.00
2023-01-29T10:46:48.578Z,102496.34
2023-01-29T10:53:15.652Z,102486.34
2023-01-29T11:00:35.292Z,102471.44
2023-01-29T11:06:27.167Z,102471.44
2023-01-29T11:12:21.641Z,102461.53
2023-01-29T11:18:58.045Z,102461.00
2023-01-29T11:25:20.756Z,102432.38
2023-01-29T11:31:46.607Z,102422.38
2023-01-29T11:37:38.397Z,102406.00
2023-01-29T11:50:48.228Z,102373.00
2023-01-29T12:04:00.731Z,102357.50
2023-01-29T12:10:07.140Z,102359.25
2023-01-29T12:23:41.632Z,102334.41
2023-01-29T12:29:53.060Z,102330.88
2023-01-29T12:35:48.490Z,102311.88
2023-01-29T12:42:01.549Z,102289.19
2023-01-29T12:48:10.387Z,102281.88
2023-01-29T12:54:05.307Z,102269.50
2023-01-29T13:00:15.588Z,102263.75
2023-01-29T13:06:28.287Z,102251.13
2023-01-29T13:12:42.365Z,102215.81
2023-01-29T13:19:00.973Z,102210.97
2023-01-29T13:25:05.449Z,102183.50
2023-01-29T13:31:33.398Z,102163.69
2023-01-29T13:37:24.858Z,102155.97
2023-01-29T13:43:21.040Z,102156.94
2023-01-29T13:49:28.526Z,102149.34
2023-01-29T13:55:22.222Z,102150.88
2023-01-29T14:01:17.883Z,102142.69
2023-01-29T14:07:56.359Z,102133.38
2023-01-29T14:13:56.980Z,102139.31
2023-01-29T14:20:19.331Z,102122.09
2023-01-29T14:26:40.286Z,102112.09
2023-01-29T14:32:34.106Z,102104.16
2023-01-29T14:38:23.981Z,102103.75
2023-01-29T14:44:45.164Z,102095.09
2023-01-29T14:50:32.141Z,102103.81
2023-01-29T14:56:34.734Z,102104.91
2023-01-29T15:02:33.382Z,102104.66
2023-01-29T15:15:46.188Z,102087.47
2023-01-29T15:21:33.263Z,102082.38
2023-01-29T15:34:13.401Z,102084.38
2023-01-29T15:40:19.259Z,102078.81
2023-01-29T15:47:27.295Z,102089.53
2023-01-29T15:53:20.603Z,102090.69
2023-01-29T15:59:27.285Z,102088.13
2023-01-29T16:05:33.448Z,102073.28
2023-01-29T16:11:21.343Z,102078.19
2023-01-29T16:18:14.475Z,102072.38
2023-01-29T16:24:12.081Z,102068.75
2023-01-29T16:30:08.916Z,102050.09
2023-01-29T16:36:07.870Z,102036.44
2023-01-29T16:42:30.285Z,102038.66
2023-01-29T16:48:31.119Z,102021.84
2023-01-29T16:54:23.699Z,102023.66
2023-01-29T17:00:33.273Z,102018.94
2023-01-29T17:06:31.609Z,102007.97
2023-01-29T17:12:22.069Z,102014.47
2023-01-29T17:18:17.736Z,102005.22
2023-01-29T17:24:05.092Z,102007.03
2023-01-29T17:29:53.523Z,102016.00
2023-01-29T17:35:44.661Z,102020.25
2023-01-29T17:41:32.416Z,102030.41
2023-01-29T17:47:19.344Z,102036.06
2023-01-29T17:53:06.186Z,102011.97
2023-01-29T17:58:53.436Z,101985.75
2023-01-29T18:04:54.050Z,101932.06
2023-01-29T18:10:41.146Z,101926.53
2023-01-29T18:16:28.735Z,101949.16
2023-01-29T18:28:52.030Z,101978.91
2023-01-29T18:34:41.875Z,102001.94
2023-01-29T18:40:32.617Z,102015.34
2023-01-29T18:46:53.595Z,101985.81
2023-01-29T18:53:09.041Z,101972.41
2023-01-29T18:58:56.264Z,101984.66
2023-01-29T19:04:47.675Z,102019.63
2023-01-29T19:10:38.887Z,102033.78
2023-01-29T19:16:33.628Z,102020.06
2023-01-29T19:22:37.849Z,102031.44
2023-01-29T19:29:16.481Z,102034.19
2023-01-29T19:42:38.992Z,102004.31
2023-01-29T19:48:27.973Z,102019.63
2023-01-29T19:54:49.941Z,101995.44
2023-01-29T20:01:16.817Z,101982.66
2023-01-29T20:07:35.747Z,101981.28
2023-01-29T20:13:22.846Z,101987.09
2023-01-29T20:19:15.142Z,101987.44
2023-01-29T20:25:07.758Z,101954.75
2023-01-29T20:31:53.856Z,101930.16
2023-01-29T20:37:43.429Z,101914.22
2023-01-29T20:43:31.572Z,101910.91
2023-01-29T20:49:19.492Z,101918.88
2023-01-29T20:55:09.119Z,101914.03
2023-01-29T21:01:01.438Z,101977.97
2023-01-29T21:06:48.937Z,101976.28
2023-01-29T21:20:17.464Z,101993.75
2023-01-29T21:26:30.468Z,101975.88
2023-01-29T21:32:59.847Z,101971.69
2023-01-29T21:38:47.833Z,101968.91
2023-01-29T21:44:37.360Z,101980.88
2023-01-29T21:50:27.277Z,101983.09
2023-01-29T21:57:05.377Z,101980.00
2023-01-29T22:02:59.264Z,101964.69
2023-01-29T22:08:49.890Z,101941.19
2023-01-29T22:14:39.016Z,101985.38
2023-01-29T22:20:30.295Z,101972.84
2023-01-29T22:26:17.726Z,101954.91
2023-01-29T22:32:06.334Z,101944.69
2023-01-29T22:37:54.401Z,101918.25
2023-01-29T22:43:44.223Z,101924.41
2023-01-29T22:49:31.617Z,101921.44
2023-01-29T22:55:19.861Z,101917.72
2023-01-29T23:01:08.357Z,101940.88
2023-01-29T23:06:55.410Z,101925.31
2023-01-29T23:12:42.288Z,101912.97
2023-01-29T23:18:30.660Z,101896.47
2023-01-29T23:24:17.447Z,101897.41
2023-01-29T23:30:05.752Z,101888.47
2023-01-29T23:35:53.035Z,101893.75
2023-01-29T23:41:39.887Z,101885.88
2023-01-29T23:47:26.863Z,101898.41
2023-01-29T23:53:14.718Z,101892.44
2023-01-29T23:59:01.816Z,101891.25
